Time;durP1;ratioP1;P1;durP2;ratioP2;P2;SDS_P1;SDS_P2;PMS_P1;PMS_P2;Temp;Humidity;BMP_temperature;BMP_pressure;BME280_temperature;BME280_humidity;BME280_pressure;Samples;Min_cycle;Max_cycle;Signal;HPM_P1;HPM_P2
2021/01/01 00:02:15;;;;;;;634.07;346.03;;;;;;;;;;5033210;28;20201;-70
2021/01/01 00:04:40;;;;;;;645.60;354.40;;;;;;;;;;5022126;28;20515;-70
2021/01/01 00:07:05;;;;;;;602.80;323.67;;;;;;;;;;5029802;28;20644;-70
2021/01/01 00:09:31;;;;;;;626.77;339.93;;;;;;;;;;5017892;28;20197;-70
2021/01/01 00:11:56;;;;;;;602.97;321.20;;;;;;;;;;5028748;28;20185;-70
2021/01/01 00:14:21;;;;;;;601.97;321.33;;;;;;;;;;5022736;28;20263;-70
2021/01/01 00:16:47;;;;;;;641.67;340.50;;;;;;;;;;5032175;28;20493;-71
2021/01/01 00:19:12;;;;;;;622.20;340.30;;;;;;;;;;5019163;28;20296;-71
2021/01/01 00:21:38;;;;;;;580.67;307.03;;;;;;;;;;5032398;28;20185;-72
2021/01/01 00:24:04;;;;;;;614.27;327.53;;;;;;;;;;5023772;28;20209;-70
2021/01/01 00:26:29;;;;;;;575.10;293.60;;;;;;;;;;5033164;28;20720;-70
2021/01/01 00:28:54;;;;;;;576.57;292.87;;;;;;;;;;5031266;28;20212;-69
2021/01/01 00:31:22;;;;;;;574.40;291.10;;;;;;;;;;5024486;28;20220;-70
2021/01/01 00:33:49;;;;;;;545.13;268.50;;;;;;;;;;5031698;28;20188;-71
2021/01/01 00:36:15;;;;;;;520.47;257.00;;;;;;;;;;5024837;28;20294;-72
2021/01/01 00:38:51;;;;;;;542.73;259.23;;;;;;;;;;5033830;28;20197;-72
2021/01/01 00:41:34;;;;;;;538.47;262.33;;;;;;;;;;5026162;28;20235;-71
2021/01/01 00:44:01;;;;;;;520.40;249.50;;;;;;;;;;5036595;28;20227;-72
2021/01/01 00:46:27;;;;;;;533.67;259.57;;;;;;;;;;5023543;28;20228;-72
2021/01/01 00:48:54;;;;;;;510.17;249.40;;;;;;;;;;5018884;28;20315;-71
2021/01/01 00:51:32;;;;;;;527.90;245.17;;;;;;;;;;5026214;28;20194;-71
2021/01/01 00:54:02;;;;;;;459.73;203.03;;;;;;;;;;5031880;28;20182;-71
2021/01/01 00:56:28;;;;;;;434.30;194.20;;;;;;;;;;5024536;28;20198;-71
2021/01/01 00:58:55;;;;;;;426.33;190.27;;;;;;;;;;5033314;28;20213;-71
2021/01/01 01:01:23;;;;;;;413.63;188.23;;;;;;;;;;5023790;28;20201;-71
2021/01/01 01:03:49;;;;;;;420.07;190.93;;;;;;;;;;5034086;28;20193;-71
2021/01/01 01:06:15;;;;;;;446.83;206.20;;;;;;;;;;5021851;28;20698;-71
2021/01/01 01:08:41;;;;;;;453.83;213.33;;;;;;;;;;5032874;28;20209;-71
2021/01/01 01:11:07;;;;;;;405.83;184.33;;;;;;;;;;5034290;28;20194;-71
2021/01/01 01:13:32;;;;;;;402.17;181.77;;;;;;;;;;5026749;28;20193;-71
2021/01/01 01:15:57;;;;;;;398.97;179.40;;;;;;;;;;5033045;28;20690;-71
2021/01/01 01:18:23;;;;;;;403.37;178.63;;;;;;;;;;5022468;28;20967;-71
2021/01/01 01:20:48;;;;;;;413.30;187.53;;;;;;;;;;5035317;28;20232;-71
2021/01/01 01:23:13;;;;;;;417.37;188.60;;;;;;;;;;5026045;28;20228;-71
2021/01/01 01:25:39;;;;;;;399.03;183.43;;;;;;;;;;5035241;28;20272;-71
2021/01/01 01:28:04;;;;;;;395.50;184.13;;;;;;;;;;5029006;28;20236;-71
2021/01/01 01:30:29;;;;;;;386.10;182.07;;;;;;;;;;5038512;28;20224;-71
2021/01/01 01:32:55;;;;;;;388.10;177.23;;;;;;;;;;5030696;28;20197;-71
2021/01/01 01:35:20;;;;;;;391.77;176.37;;;;;;;;;;5040802;28;20225;-71
2021/01/01 01:37:46;;;;;;;344.50;155.67;;;;;;;;;;5031986;28;20644;-71
2021/01/01 01:40:11;;;;;;;352.97;159.27;;;;;;;;;;5037245;28;20221;-72
2021/01/01 01:42:37;;;;;;;328.03;148.70;;;;;;;;;;5036986;28;20189;-71
2021/01/01 01:45:07;;;;;;;318.60;143.87;;;;;;;;;;5030691;28;20193;-71
2021/01/01 01:47:33;;;;;;;336.13;153.27;;;;;;;;;;5036714;28;20188;-72
2021/01/01 01:49:59;;;;;;;449.70;198.67;;;;;;;;;;5030664;28;20189;-71
2021/01/01 01:52:24;;;;;;;436.03;190.23;;;;;;;;;;5039318;28;20193;-70
2021/01/01 01:54:53;;;;;;;368.47;161.53;;;;;;;;;;5028626;28;20208;-70
2021/01/01 01:57:19;;;;;;;350.77;151.53;;;;;;;;;;5038630;28;20201;-70
2021/01/01 01:59:48;;;;;;;328.60;148.30;;;;;;;;;;5028603;28;20359;-70
2021/01/01 02:02:13;;;;;;;322.10;143.67;;;;;;;;;;5036539;28;20212;-71
2021/01/01 02:04:39;;;;;;;340.30;146.63;;;;;;;;;;5029725;28;20197;-71
2021/01/01 02:07:04;;;;;;;347.27;154.23;;;;;;;;;;5036323;28;20275;-71
2021/01/01 02:09:30;;;;;;;333.80;147.17;;;;;;;;;;5031630;28;20244;-71
2021/01/01 02:11:55;;;;;;;328.83;146.53;;;;;;;;;;5036969;28;20205;-71
2021/01/01 02:14:21;;;;;;;331.00;148.00;;;;;;;;;;5037468;28;20201;-70
2021/01/01 02:16:47;;;;;;;345.87;155.70;;;;;;;;;;5030520;28;20196;-70
2021/01/01 02:19:13;;;;;;;323.40;144.90;;;;;;;;;;5021493;28;20710;-70
2021/01/01 02:21:40;;;;;;;351.93;154.87;;;;;;;;;;5026706;28;20205;-71
2021/01/01 02:24:08;;;;;;;335.43;149.67;;;;;;;;;;5038823;28;20200;-71
2021/01/01 02:26:33;;;;;;;330.63;146.80;;;;;;;;;;5028106;28;20231;-71
2021/01/01 02:28:58;;;;;;;336.00;145.87;;;;;;;;;;5036826;28;20615;-71
2021/01/01 02:31:23;;;;;;;363.43;156.20;;;;;;;;;;5030325;28;20197;-71
2021/01/01 02:33:49;;;;;;;367.07;156.47;;;;;;;;;;5036678;28;20205;-71
2021/01/01 02:36:14;;;;;;;341.73;150.40;;;;;;;;;;5029496;28;22095;-71
2021/01/01 02:38:39;;;;;;;326.13;140.97;;;;;;;;;;5034616;28;20205;-71
2021/01/01 02:41:05;;;;;;;316.93;141.60;;;;;;;;;;5036291;28;20194;-70
2021/01/01 02:43:31;;;;;;;337.13;144.33;;;;;;;;;;5031410;28;20193;-70
2021/01/01 02:45:56;;;;;;;320.23;138.40;;;;;;;;;;5034710;28;20193;-70
2021/01/01 02:48:21;;;;;;;317.63;139.67;;;;;;;;;;5025757;28;20196;-70
2021/01/01 02:50:47;;;;;;;309.27;135.07;;;;;;;;;;5036552;28;20670;-70
2021/01/01 02:53:13;;;;;;;328.07;143.10;;;;;;;;;;5029008;28;20545;-70
2021/01/01 02:55:39;;;;;;;315.00;134.83;;;;;;;;;;5038774;28;20190;-70
2021/01/01 02:58:05;;;;;;;327.40;141.23;;;;;;;;;;5030105;28;20185;-71
2021/01/01 03:00:32;;;;;;;337.30;142.07;;;;;;;;;;5036342;28;20207;-70
2021/01/01 03:02:57;;;;;;;325.67;135.50;;;;;;;;;;5027613;28;20292;-71
2021/01/01 03:05:22;;;;;;;329.23;134.47;;;;;;;;;;5036126;28;20660;-71
2021/01/01 03:07:48;;;;;;;327.87;138.80;;;;;;;;;;5025708;28;20212;-70
2021/01/01 03:10:14;;;;;;;325.30;134.90;;;;;;;;;;5038857;28;20182;-70
2021/01/01 03:12:39;;;;;;;305.53;129.23;;;;;;;;;;5035772;28;20212;-70
2021/01/01 03:15:06;;;;;;;326.07;128.70;;;;;;;;;;5030168;28;20217;-70
2021/01/01 03:17:32;;;;;;;307.53;128.77;;;;;;;;;;5033574;28;20189;-70
2021/01/01 03:19:57;;;;;;;309.60;128.63;;;;;;;;;;5023889;28;20685;-70
2021/01/01 03:22:22;;;;;;;314.40;126.67;;;;;;;;;;5036538;28;20189;-70
2021/01/01 03:24:48;;;;;;;319.67;128.00;;;;;;;;;;5028181;28;20216;-70
2021/01/01 03:27:14;;;;;;;294.10;123.20;;;;;;;;;;5034782;28;20215;-70
2021/01/01 03:29:39;;;;;;;315.80;128.30;;;;;;;;;;5027347;28;20209;-70
2021/01/01 03:32:04;;;;;;;327.17;126.97;;;;;;;;;;5036316;28;20255;-70
2021/01/01 03:34:30;;;;;;;306.30;124.20;;;;;;;;;;5027736;28;20246;-70
2021/01/01 03:36:55;;;;;;;305.93;122.23;;;;;;;;;;5035670;28;20245;-70
2021/01/01 03:39:21;;;;;;;331.97;129.60;;;;;;;;;;5030580;28;20186;-70
2021/01/01 03:41:46;;;;;;;342.17;135.17;;;;;;;;;;5035676;28;20189;-70
2021/01/01 03:44:11;;;;;;;314.07;127.00;;;;;;;;;;5038830;28;20224;-70
2021/01/01 03:46:37;;;;;;;318.00;124.10;;;;;;;;;;5023920;28;20197;-70
2021/01/01 03:49:02;;;;;;;352.17;130.77;;;;;;;;;;5037925;28;20697;-70
2021/01/01 03:51:28;;;;;;;326.03;131.00;;;;;;;;;;5027771;28;20545;-70
2021/01/01 03:53:53;;;;;;;325.17;129.73;;;;;;;;;;5034555;28;20192;-70
2021/01/01 03:56:18;;;;;;;336.23;127.47;;;;;;;;;;5027027;28;20189;-70
2021/01/01 03:58:44;;;;;;;302.70;120.93;;;;;;;;;;5038420;28;20197;-70
2021/01/01 04:01:09;;;;;;;323.30;129.03;;;;;;;;;;5026927;28;20284;-70
2021/01/01 04:03:34;;;;;;;329.03;123.63;;;;;;;;;;5037303;28;20215;-70
2021/01/01 04:06:00;;;;;;;345.77;127.90;;;;;;;;;;5028563;28;20269;-70
2021/01/01 04:08:25;;;;;;;337.87;124.33;;;;;;;;;;5036474;28;20177;-70
2021/01/01 04:10:51;;;;;;;332.33;126.80;;;;;;;;;;5033966;28;20741;-70
2021/01/01 04:13:16;;;;;;;356.03;131.00;;;;;;;;;;5026595;28;20193;-70
2021/01/01 04:15:41;;;;;;;345.73;130.77;;;;;;;;;;5032640;28;20853;-69
2021/01/01 04:18:07;;;;;;;369.03;132.93;;;;;;;;;;5027654;28;20640;-70
2021/01/01 04:20:32;;;;;;;353.47;134.07;;;;;;;;;;5035835;28;20189;-69
2021/01/01 04:22:58;;;;;;;350.63;132.30;;;;;;;;;;5027440;28;20538;-69
2021/01/01 04:25:23;;;;;;;371.37;136.70;;;;;;;;;;5033840;28;20240;-69
2021/01/01 04:27:48;;;;;;;374.83;138.67;;;;;;;;;;5028106;28;20569;-69
2021/01/01 04:30:14;;;;;;;367.07;138.17;;;;;;;;;;5032031;28;20695;-69
2021/01/01 04:32:39;;;;;;;384.70;141.20;;;;;;;;;;5027665;28;20197;-69
2021/01/01 04:35:05;;;;;;;387.60;139.67;;;;;;;;;;5035480;28;20193;-69
2021/01/01 04:37:31;;;;;;;371.10;141.27;;;;;;;;;;5028299;28;20605;-70
2021/01/01 04:39:56;;;;;;;375.40;140.70;;;;;;;;;;5031117;28;20191;-69
2021/01/01 04:42:22;;;;;;;385.63;142.33;;;;;;;;;;5037209;28;20197;-69
2021/01/01 04:44:47;;;;;;;388.13;146.93;;;;;;;;;;5027285;28;20228;-70
2021/01/01 04:47:13;;;;;;;398.87;145.60;;;;;;;;;;5036665;28;20361;-70
2021/01/01 04:49:39;;;;;;;396.07;148.70;;;;;;;;;;5025404;28;20201;-70
2021/01/01 04:52:08;;;;;;;376.07;146.50;;;;;;;;;;5037768;28;20204;-70
2021/01/01 04:54:33;;;;;;;389.23;145.70;;;;;;;;;;5026401;28;20198;-70
2021/01/01 04:56:59;;;;;;;404.00;152.20;;;;;;;;;;5037175;28;20188;-70
2021/01/01 04:59:25;;;;;;;385.33;145.93;;;;;;;;;;5026188;28;20214;-69
2021/01/01 05:01:50;;;;;;;373.13;143.90;;;;;;;;;;5040239;28;20189;-70
2021/01/01 05:04:15;;;;;;;405.10;148.27;;;;;;;;;;5026088;28;23816;-69
2021/01/01 05:06:42;;;;;;;382.40;137.13;;;;;;;;;;5038589;28;20758;-69
2021/01/01 05:09:10;;;;;;;390.83;139.87;;;;;;;;;;5036362;28;20672;-70
2021/01/01 05:11:36;;;;;;;387.07;139.53;;;;;;;;;;5038677;28;20185;-69
2021/01/01 05:14:04;;;;;;;451.77;142.63;;;;;;;;;;5039042;28;20190;-69
2021/01/01 05:16:29;;;;;;;489.67;144.67;;;;;;;;;;5030830;28;20185;-69
2021/01/01 05:18:55;;;;;;;417.57;132.07;;;;;;;;;;5036131;28;20185;-67
2021/01/01 05:21:22;;;;;;;401.50;132.33;;;;;;;;;;5030788;28;20571;-69
2021/01/01 05:23:53;;;;;;;556.23;145.63;;;;;;;;;;5036811;28;20181;-69
2021/01/01 05:26:19;;;;;;;467.97;137.07;;;;;;;;;;5030330;28;20193;-69
2021/01/01 05:28:47;;;;;;;385.60;126.90;;;;;;;;;;5038108;28;20190;-69
2021/01/01 05:31:13;;;;;;;356.77;124.33;;;;;;;;;;5032350;28;20210;-69
2021/01/01 05:33:41;;;;;;;319.97;121.13;;;;;;;;;;5037276;28;20612;-69
2021/01/01 05:36:07;;;;;;;320.43;118.40;;;;;;;;;;5026916;28;20233;-69
2021/01/01 05:38:36;;;;;;;315.77;117.23;;;;;;;;;;5038381;28;20196;-69
2021/01/01 05:41:02;;;;;;;302.37;119.40;;;;;;;;;;5027983;28;20282;-69
2021/01/01 05:43:27;;;;;;;312.13;117.37;;;;;;;;;;5038660;28;20185;-69
2021/01/01 05:46:06;;;;;;;288.60;112.10;;;;;;;;;;5039606;28;20275;-69
2021/01/01 05:48:32;;;;;;;289.00;113.17;;;;;;;;;;5034322;28;20185;-69
2021/01/01 05:51:05;;;;;;;288.93;112.63;;;;;;;;;;5038503;28;20719;-67
2021/01/01 05:53:31;;;;;;;291.57;112.47;;;;;;;;;;5028793;28;20656;-69
2021/01/01 05:56:06;;;;;;;295.53;109.77;;;;;;;;;;5040027;28;20238;-69
2021/01/01 05:58:31;;;;;;;293.73;109.40;;;;;;;;;;5026560;28;20189;-69
2021/01/01 06:00:58;;;;;;;294.57;109.47;;;;;;;;;;5037246;28;20196;-69
2021/01/01 06:03:25;;;;;;;290.40;106.67;;;;;;;;;;5027860;28;20207;-69
2021/01/01 06:05:55;;;;;;;293.00;105.20;;;;;;;;;;5036613;28;20225;-67
2021/01/01 06:08:26;;;;;;;304.47;110.43;;;;;;;;;;5028160;28;20232;-69
2021/01/01 06:10:53;;;;;;;295.50;106.47;;;;;;;;;;5035347;28;20221;-69
2021/01/01 06:13:20;;;;;;;300.07;110.83;;;;;;;;;;5029587;28;20208;-69
2021/01/01 06:15:57;;;;;;;278.43;105.03;;;;;;;;;;5038512;28;20197;-69
2021/01/01 06:18:33;;;;;;;290.73;105.53;;;;;;;;;;5030439;28;20193;-69
2021/01/01 06:21:03;;;;;;;293.93;105.03;;;;;;;;;;5037354;28;20185;-67
2021/01/01 06:23:33;;;;;;;293.60;107.17;;;;;;;;;;5026195;28;20216;-69
2021/01/01 06:26:00;;;;;;;289.23;106.17;;;;;;;;;;5038135;28;20259;-69
2021/01/01 06:28:27;;;;;;;288.13;103.83;;;;;;;;;;5029781;28;20197;-69
2021/01/01 06:30:56;;;;;;;281.70;99.13;;;;;;;;;;5035374;28;20387;-69
2021/01/01 06:33:23;;;;;;;279.33;101.43;;;;;;;;;;5039203;28;20190;-69
2021/01/01 06:35:49;;;;;;;268.93;101.90;;;;;;;;;;5026567;28;20313;-69
2021/01/01 06:38:35;;;;;;;280.47;102.23;;;;;;;;;;5037481;28;20272;-69
2021/01/01 06:41:01;;;;;;;261.57;93.53;;;;;;;;;;5029759;28;20631;-69
2021/01/01 06:43:47;;;;;;;268.40;100.50;;;;;;;;;;5037750;28;20184;-69
2021/01/01 06:46:13;;;;;;;258.50;98.17;;;;;;;;;;5029749;28;20193;-69
2021/01/01 06:48:38;;;;;;;256.23;97.87;;;;;;;;;;5037402;28;20660;-69
2021/01/01 06:51:13;;;;;;;244.27;94.00;;;;;;;;;;5027312;28;20214;-69
2021/01/01 06:53:39;;;;;;;247.77;94.97;;;;;;;;;;5035693;28;20631;-69
2021/01/01 06:56:09;;;;;;;240.13;95.57;;;;;;;;;;5026251;28;20194;-69
2021/01/01 06:58:35;;;;;;;233.93;91.63;;;;;;;;;;5037883;28;20645;-69
2021/01/01 07:01:00;;;;;;;229.80;93.43;;;;;;;;;;5026914;28;20191;-69
2021/01/01 07:03:25;;;;;;;230.73;90.70;;;;;;;;;;5036747;28;20281;-69
2021/01/01 07:05:51;;;;;;;222.60;90.30;;;;;;;;;;5028078;28;20216;-69
2021/01/01 07:08:42;;;;;;;225.33;89.23;;;;;;;;;;5038529;28;20646;-69
2021/01/01 07:11:10;;;;;;;232.77;90.57;;;;;;;;;;5027238;28;20196;-69
2021/01/01 07:13:45;;;;;;;222.23;89.43;;;;;;;;;;5036507;28;20197;-70
2021/01/01 07:16:12;;;;;;;220.17;87.83;;;;;;;;;;5028052;28;20177;-70
2021/01/01 07:18:38;;;;;;;209.47;85.57;;;;;;;;;;5033154;28;20204;-69
2021/01/01 07:21:05;;;;;;;198.20;84.53;;;;;;;;;;5037744;28;20186;-69
2021/01/01 07:23:31;;;;;;;208.10;86.23;;;;;;;;;;5027794;28;20573;-69
2021/01/01 07:25:57;;;;;;;209.63;83.93;;;;;;;;;;5037766;28;20193;-69
2021/01/01 07:28:24;;;;;;;208.50;81.20;;;;;;;;;;5026257;28;20185;-69
2021/01/01 07:30:49;;;;;;;202.17;80.70;;;;;;;;;;5036982;28;20236;-69
2021/01/01 07:33:25;;;;;;;193.50;77.67;;;;;;;;;;5028517;28;20189;-70
2021/01/01 07:35:54;;;;;;;209.63;80.93;;;;;;;;;;5036546;28;20237;-69
2021/01/01 07:38:20;;;;;;;194.43;82.00;;;;;;;;;;5025883;28;20251;-70
2021/01/01 07:40:46;;;;;;;183.17;75.87;;;;;;;;;;5037263;28;20656;-69
2021/01/01 07:43:11;;;;;;;189.83;77.33;;;;;;;;;;5026870;28;20220;-69
2021/01/01 07:45:37;;;;;;;190.70;80.13;;;;;;;;;;5037379;28;20726;-69
2021/01/01 07:48:03;;;;;;;196.97;81.40;;;;;;;;;;5026990;28;20201;-69
2021/01/01 07:50:30;;;;;;;193.07;77.93;;;;;;;;;;5035282;28;20194;-69
2021/01/01 07:53:10;;;;;;;194.00;79.23;;;;;;;;;;5036390;28;20201;-70
2021/01/01 07:55:38;;;;;;;205.47;81.33;;;;;;;;;;5035557;28;20250;-69
2021/01/01 07:58:10;;;;;;;205.67;82.17;;;;;;;;;;5035106;28;20200;-69
2021/01/01 08:00:38;;;;;;;199.03;81.23;;;;;;;;;;5026110;28;20189;-68
2021/01/01 08:03:05;;;;;;;204.93;81.33;;;;;;;;;;5035066;28;20193;-70
2021/01/01 08:05:30;;;;;;;195.13;81.40;;;;;;;;;;5029211;28;20185;-69
2021/01/01 08:08:20;;;;;;;198.33;82.77;;;;;;;;;;5033561;28;20197;-70
2021/01/01 08:10:47;;;;;;;186.73;76.63;;;;;;;;;;5024136;28;20623;-69
2021/01/01 08:13:24;;;;;;;174.70;76.43;;;;;;;;;;5036010;28;20231;-69
2021/01/01 08:15:50;;;;;;;184.27;78.30;;;;;;;;;;5026119;28;20292;-69
2021/01/01 08:18:21;;;;;;;182.40;76.10;;;;;;;;;;5034720;28;20610;-69
2021/01/01 08:20:48;;;;;;;179.80;76.50;;;;;;;;;;5024460;28;20722;-69
2021/01/01 08:23:15;;;;;;;174.17;74.97;;;;;;;;;;5034019;28;20774;-70
2021/01/01 08:25:42;;;;;;;188.20;76.37;;;;;;;;;;5023718;28;20193;-69
2021/01/01 08:28:08;;;;;;;170.33;76.07;;;;;;;;;;5036387;28;20568;-69
2021/01/01 08:30:38;;;;;;;184.70;74.87;;;;;;;;;;5024590;28;20205;-70
2021/01/01 08:33:08;;;;;;;178.53;73.53;;;;;;;;;;5032033;28;20173;-69
2021/01/01 08:35:34;;;;;;;170.17;72.77;;;;;;;;;;5023548;28;21001;-69
2021/01/01 08:37:59;;;;;;;166.70;70.73;;;;;;;;;;5036104;28;20192;-69
2021/01/01 08:40:25;;;;;;;163.03;68.63;;;;;;;;;;5035894;28;20637;-70
2021/01/01 08:42:54;;;;;;;156.20;69.80;;;;;;;;;;5024357;28;20181;-70
2021/01/01 08:45:29;;;;;;;154.30;66.73;;;;;;;;;;5035946;28;20193;-70
2021/01/01 08:47:54;;;;;;;157.40;65.97;;;;;;;;;;5030151;28;20387;-70
2021/01/01 08:50:20;;;;;;;148.83;64.60;;;;;;;;;;5036649;28;20212;-70
2021/01/01 08:52:47;;;;;;;141.37;63.47;;;;;;;;;;5026777;28;20276;-70
2021/01/01 08:55:13;;;;;;;144.97;62.37;;;;;;;;;;5037207;28;20224;-70
2021/01/01 08:57:39;;;;;;;135.30;61.20;;;;;;;;;;5029834;28;20181;-70
2021/01/01 09:00:06;;;;;;;136.27;59.27;;;;;;;;;;5038219;28;20219;-71
2021/01/01 09:02:32;;;;;;;132.53;60.53;;;;;;;;;;5027887;28;20185;-70
2021/01/01 09:04:58;;;;;;;135.33;59.17;;;;;;;;;;5038546;28;20193;-70
2021/01/01 09:07:23;;;;;;;130.87;58.97;;;;;;;;;;5029291;28;20220;-70
2021/01/01 09:09:49;;;;;;;128.67;57.57;;;;;;;;;;5037437;28;20267;-70
2021/01/01 09:12:16;;;;;;;128.77;56.63;;;;;;;;;;5036912;28;20584;-70
2021/01/01 09:14:52;;;;;;;126.23;56.83;;;;;;;;;;5031869;28;20295;-70
2021/01/01 09:17:22;;;;;;;121.23;54.80;;;;;;;;;;5036600;28;20698;-70
2021/01/01 09:20:03;;;;;;;119.00;55.70;;;;;;;;;;5026392;28;20675;-70
2021/01/01 09:22:32;;;;;;;118.67;55.07;;;;;;;;;;5039819;28;20543;-70
2021/01/01 09:25:18;;;;;;;124.07;55.03;;;;;;;;;;4328110;28;10000824;-70
2021/01/01 09:27:45;;;;;;;115.73;54.93;;;;;;;;;;5033489;28;20544;-71
2021/01/01 09:30:11;;;;;;;121.90;54.23;;;;;;;;;;5026070;28;20220;-71
2021/01/01 09:32:41;;;;;;;118.33;52.63;;;;;;;;;;5034253;28;20173;-72
2021/01/01 09:35:07;;;;;;;117.33;54.60;;;;;;;;;;5025390;28;20194;-70
2021/01/01 09:37:32;;;;;;;115.63;54.23;;;;;;;;;;5037008;28;21071;-70
2021/01/01 09:39:57;;;;;;;115.80;53.77;;;;;;;;;;5023987;28;20189;-71
2021/01/01 09:42:24;;;;;;;130.23;56.47;;;;;;;;;;5034071;28;20653;-71
2021/01/01 09:44:49;;;;;;;118.47;55.70;;;;;;;;;;5025899;28;20189;-71
2021/01/01 09:47:14;;;;;;;128.80;58.63;;;;;;;;;;5032944;28;20326;-70
2021/01/01 09:49:39;;;;;;;120.30;53.90;;;;;;;;;;5025381;28;20213;-70
2021/01/01 09:52:05;;;;;;;134.30;59.20;;;;;;;;;;5034603;28;20196;-71
2021/01/01 09:54:30;;;;;;;120.30;55.37;;;;;;;;;;5033280;28;20193;-71
2021/01/01 09:56:55;;;;;;;116.63;55.40;;;;;;;;;;5024466;28;20193;-71
2021/01/01 09:59:21;;;;;;;131.63;58.33;;;;;;;;;;5032975;28;20717;-70
2021/01/01 10:01:46;;;;;;;122.77;58.53;;;;;;;;;;5024085;28;20437;-72
2021/01/01 10:04:11;;;;;;;132.13;60.50;;;;;;;;;;5033479;28;20713;-71
2021/01/01 10:06:37;;;;;;;119.33;56.20;;;;;;;;;;5037831;28;20247;-71
2021/01/01 10:09:02;;;;;;;119.20;56.80;;;;;;;;;;5032190;28;20504;-71
2021/01/01 10:11:27;;;;;;;121.37;59.87;;;;;;;;;;5021586;28;20197;-71
2021/01/01 10:13:53;;;;;;;127.33;58.20;;;;;;;;;;5032712;28;20193;-71
2021/01/01 10:16:18;;;;;;;128.27;59.67;;;;;;;;;;5025187;28;20205;-71
2021/01/01 10:18:43;;;;;;;130.87;60.63;;;;;;;;;;5032127;28;20181;-72
2021/01/01 10:21:10;;;;;;;121.63;57.60;;;;;;;;;;5026024;28;20705;-72
2021/01/01 10:23:36;;;;;;;119.77;57.07;;;;;;;;;;5029117;28;20189;-73
2021/01/01 10:26:01;;;;;;;121.03;56.70;;;;;;;;;;5031128;28;20275;-72
2021/01/01 10:28:27;;;;;;;120.50;57.13;;;;;;;;;;5022714;28;20736;-71
2021/01/01 10:30:52;;;;;;;115.20;55.47;;;;;;;;;;5032917;28;20233;-72
2021/01/01 10:33:17;;;;;;;114.00;55.20;;;;;;;;;;5024220;28;20193;-72
2021/01/01 10:35:43;;;;;;;121.30;55.50;;;;;;;;;;5030433;28;20668;-72
2021/01/01 10:38:08;;;;;;;117.33;55.27;;;;;;;;;;5021571;28;20779;-72
2021/01/01 10:40:34;;;;;;;106.70;53.00;;;;;;;;;;5032166;28;20182;-72
2021/01/01 10:42:59;;;;;;;116.73;55.90;;;;;;;;;;5020434;28;20193;-72
2021/01/01 10:45:24;;;;;;;106.03;54.70;;;;;;;;;;5034846;28;20193;-72
2021/01/01 10:47:50;;;;;;;114.30;54.00;;;;;;;;;;5024062;28;20273;-72
2021/01/01 10:50:15;;;;;;;102.07;52.10;;;;;;;;;;5039818;28;20310;-71
2021/01/01 10:52:41;;;;;;;108.47;50.93;;;;;;;;;;5031737;28;20185;-71
2021/01/01 10:55:07;;;;;;;106.67;52.40;;;;;;;;;;5034589;28;21310;-71
2021/01/01 10:57:32;;;;;;;108.70;53.37;;;;;;;;;;5032119;28;20189;-71
2021/01/01 10:59:58;;;;;;;97.37;52.60;;;;;;;;;;4675796;28;9999869;-71
2021/01/01 11:02:23;;;;;;;98.53;49.90;;;;;;;;;;5032889;28;20197;-72
2021/01/01 11:04:48;;;;;;;101.23;51.93;;;;;;;;;;5023930;28;20200;-72
2021/01/01 11:07:13;;;;;;;97.77;51.93;;;;;;;;;;5032704;28;20216;-72
2021/01/01 11:09:39;;;;;;;98.80;50.10;;;;;;;;;;5025206;28;20228;-71
2021/01/01 11:12:05;;;;;;;96.77;51.13;;;;;;;;;;5032226;28;20194;-72
2021/01/01 12:23:10;;;;;;;76.97;41.80;;;;;;;;;;5025281;28;20236;-71
2021/01/01 12:25:36;;;;;;;75.63;40.10;;;;;;;;;;5031308;28;20177;-72
2021/01/01 12:28:04;;;;;;;80.03;42.03;;;;;;;;;;5025500;28;20204;-71
2021/01/01 12:30:31;;;;;;;69.63;40.17;;;;;;;;;;5032905;28;20564;-71
2021/01/01 12:32:57;;;;;;;72.77;40.70;;;;;;;;;;5033483;28;20194;-71
2021/01/01 12:35:22;;;;;;;73.77;39.90;;;;;;;;;;5021423;28;20611;-71
2021/01/01 12:38:01;;;;;;;73.37;40.83;;;;;;;;;;5031220;28;20189;-71
2021/01/01 12:40:28;;;;;;;69.17;38.57;;;;;;;;;;5022654;28;20275;-71
2021/01/01 12:42:53;;;;;;;64.90;37.73;;;;;;;;;;5030831;28;20216;-71
2021/01/01 12:45:18;;;;;;;65.80;38.00;;;;;;;;;;5023646;28;20182;-71
2021/01/01 12:47:44;;;;;;;67.00;38.03;;;;;;;;;;5030204;28;20695;-71
2021/01/01 12:50:10;;;;;;;66.37;37.93;;;;;;;;;;5024273;28;20672;-71
2021/01/01 12:52:35;;;;;;;68.13;38.73;;;;;;;;;;5031712;28;20195;-71
2021/01/01 12:55:01;;;;;;;74.93;40.60;;;;;;;;;;5022386;28;20657;-71
2021/01/01 12:57:26;;;;;;;71.37;38.20;;;;;;;;;;5028968;28;20680;-71
2021/01/01 12:59:51;;;;;;;69.73;38.03;;;;;;;;;;5022605;28;20182;-71
2021/01/01 13:02:17;;;;;;;66.53;39.33;;;;;;;;;;5030078;28;20181;-71
2021/01/01 13:04:42;;;;;;;72.63;38.87;;;;;;;;;;5031782;28;20203;-71
2021/01/01 13:07:07;;;;;;;72.80;39.47;;;;;;;;;;5023990;28;20228;-71
2021/01/01 13:09:33;;;;;;;66.80;36.27;;;;;;;;;;5032850;28;20267;-71
2021/01/01 13:11:58;;;;;;;65.57;37.17;;;;;;;;;;5024105;28;20208;-71
2021/01/01 13:14:23;;;;;;;64.03;35.57;;;;;;;;;;5031333;28;20232;-71
2021/01/01 13:16:49;;;;;;;64.43;35.70;;;;;;;;;;5023972;28;20197;-71
2021/01/01 13:19:14;;;;;;;66.17;37.00;;;;;;;;;;5034373;28;20174;-71
2021/01/01 13:21:40;;;;;;;63.70;35.20;;;;;;;;;;5024949;28;20341;-71
2021/01/01 13:24:06;;;;;;;65.53;36.13;;;;;;;;;;5035150;28;20513;-71
2021/01/01 13:26:32;;;;;;;62.03;34.97;;;;;;;;;;5028038;28;20312;-71
2021/01/01 13:28:59;;;;;;;64.33;35.40;;;;;;;;;;5036153;28;20189;-71
2021/01/01 13:31:38;;;;;;;68.03;36.93;;;;;;;;;;5032453;28;20212;-71
2021/01/01 13:34:05;;;;;;;70.37;35.70;;;;;;;;;;5040582;28;20192;-71
2021/01/01 13:36:31;;;;;;;68.53;37.77;;;;;;;;;;5035412;28;20655;-70
2021/01/01 13:38:56;;;;;;;67.80;36.73;;;;;;;;;;5028854;28;20204;-71
2021/01/01 13:41:22;;;;;;;66.77;37.03;;;;;;;;;;5035882;28;20667;-71
2021/01/01 13:43:47;;;;;;;67.97;39.28;;;;;;;;;;5027071;28;20494;-71
2021/01/01 13:46:27;;;;;;;68.97;38.43;;;;;;;;;;5037029;28;20185;-71
2021/01/01 13:48:53;;;;;;;62.37;35.03;;;;;;;;;;5029969;28;20242;-70
2021/01/01 13:51:45;;;;;;;68.07;35.87;;;;;;;;;;5035949;28;20251;-71
2021/01/01 13:54:10;;;;;;;60.10;34.83;;;;;;;;;;5024687;28;20197;-71
2021/01/01 13:56:35;;;;;;;70.00;36.77;;;;;;;;;;5038226;28;20189;-71
2021/01/01 13:59:01;;;;;;;66.57;34.80;;;;;;;;;;5032913;28;20185;-71
2021/01/01 14:01:27;;;;;;;68.20;34.77;;;;;;;;;;5037864;28;20186;-71
2021/01/01 14:03:52;;;;;;;61.00;34.97;;;;;;;;;;5030713;28;20185;-71
2021/01/01 14:06:18;;;;;;;62.50;34.77;;;;;;;;;;5036484;28;20205;-71
2021/01/01 14:08:43;;;;;;;60.37;33.30;;;;;;;;;;5027646;28;20189;-71
2021/01/01 14:11:10;;;;;;;64.97;33.77;;;;;;;;;;5036177;28;20672;-71
2021/01/01 14:13:35;;;;;;;59.67;34.20;;;;;;;;;;5036848;28;20189;-71
2021/01/01 14:16:01;;;;;;;68.33;35.80;;;;;;;;;;5027294;28;20246;-71
2021/01/01 14:18:27;;;;;;;66.33;35.40;;;;;;;;;;5036996;28;20185;-71
2021/01/01 14:20:53;;;;;;;62.90;36.07;;;;;;;;;;5023175;28;20249;-71
2021/01/01 14:23:18;;;;;;;62.37;35.03;;;;;;;;;;5032940;28;20189;-71
2021/01/01 14:25:44;;;;;;;60.97;33.07;;;;;;;;;;5028557;28;20585;-71
2021/01/01 14:28:10;;;;;;;61.83;33.57;;;;;;;;;;5036588;28;20810;-71
2021/01/01 14:30:36;;;;;;;57.80;31.77;;;;;;;;;;5028583;28;20216;-71
2021/01/01 14:33:03;;;;;;;57.77;31.40;;;;;;;;;;5036432;28;20177;-71
2021/01/01 14:35:28;;;;;;;58.63;32.03;;;;;;;;;;5027123;28;20236;-72
2021/01/01 14:37:53;;;;;;;58.53;30.63;;;;;;;;;;5034605;28;20182;-72
2021/01/01 14:40:19;;;;;;;57.97;31.00;;;;;;;;;;5025475;28;20711;-72
2021/01/01 14:42:44;;;;;;;55.33;30.47;;;;;;;;;;5035343;28;20195;-72
2021/01/01 14:45:10;;;;;;;59.33;30.27;;;;;;;;;;5035000;28;20600;-72
2021/01/01 14:47:35;;;;;;;55.60;30.07;;;;;;;;;;5024867;28;20193;-72
2021/01/01 14:50:01;;;;;;;55.30;29.27;;;;;;;;;;5033617;28;20217;-72
2021/01/01 14:52:28;;;;;;;60.40;30.90;;;;;;;;;;5026401;28;20219;-72
2021/01/01 14:54:54;;;;;;;52.07;28.20;;;;;;;;;;5033660;28;20192;-72
2021/01/01 14:57:20;;;;;;;54.27;29.53;;;;;;;;;;5021854;28;20698;-72
2021/01/01 14:59:45;;;;;;;59.37;29.60;;;;;;;;;;5031548;28;20173;-72
2021/01/01 15:02:11;;;;;;;50.87;28.97;;;;;;;;;;5023746;28;20185;-72
2021/01/01 15:04:36;;;;;;;55.37;29.53;;;;;;;;;;5032970;28;20689;-72
2021/01/01 15:07:01;;;;;;;51.93;29.33;;;;;;;;;;5024931;28;20213;-72
2021/01/01 15:09:27;;;;;;;58.33;30.23;;;;;;;;;;5034237;28;20771;-72